AAL2604 KCLT-KSRQ
Flight info
| Callsign | AAL2604 |
|---|---|
| Flight time | N/A |
| Altitude | 36000 |
| Route | ICONS5 NOOKS RIELE Q103 PUPYY KYYUU LUBBR3 |
| Aircraft | A20N/M-SDE2E3FGHIRWXY/LB1 |
Departure
| Time | 2026-05-04 00:25 |
|---|---|
| Airport | Charlotte Douglas International Airport (KCLT) |
Arrival
| Time | N/A |
|---|---|
| Airport | Sarasota Bradenton International Airport (KSRQ) |
| Time | Latitude | Longitude | Altitude | Speed | Heading |
|---|---|---|---|---|---|
| 2026-05-04 00:13 | 35.22412 | -80.93878 | 753 ft | 0 kts | 261° |
| 2026-05-04 00:19 | 35.22412 | -80.93877 | 753 ft | 1 kts | 261° |
| 2026-05-04 00:19 | 35.22413 | -80.93870 | 753 ft | 1 kts | 263° |
| 2026-05-04 00:20 | 35.22414 | -80.93862 | 749 ft | 1 kts | 272° |
| 2026-05-04 00:20 | 35.22413 | -80.93854 | 750 ft | 1 kts | 282° |
| 2026-05-04 00:20 | 35.22412 | -80.93846 | 752 ft | 1 kts | 292° |
| 2026-05-04 00:20 | 35.22409 | -80.93838 | 751 ft | 1 kts | 302° |
| 2026-05-04 00:21 | 35.22405 | -80.93830 | 748 ft | 1 kts | 312° |
| 2026-05-04 00:21 | 35.22399 | -80.93823 | 748 ft | 1 kts | 322° |
| 2026-05-04 00:21 | 35.22397 | -80.93820 | 748 ft | 0 kts | 326° |
| 2026-05-04 00:22 | 35.22397 | -80.93821 | 753 ft | 1 kts | 326° |
| 2026-05-04 00:22 | 35.22410 | -80.93826 | 750 ft | 3 kts | 344° |
| 2026-05-04 00:22 | 35.22441 | -80.93830 | 751 ft | 6 kts | 355° |
| 2026-05-04 00:23 | 35.22485 | -80.93821 | 753 ft | 7 kts | 34° |
| 2026-05-04 00:23 | 35.22502 | -80.93756 | 755 ft | 9 kts | 85° |
| 2026-05-04 00:23 | 35.22503 | -80.93739 | 755 ft | 0 kts | 85° |
| 2026-05-04 00:24 | 35.22504 | -80.93719 | 755 ft | 5 kts | 85° |
| 2026-05-04 00:24 | 35.22507 | -80.93653 | 755 ft | 11 kts | 94° |
| 2026-05-04 00:24 | 35.22442 | -80.93613 | 751 ft | 0 kts | 176° |
| 2026-05-04 00:25 | 35.22196 | -80.93593 | 751 ft | 82 kts | 176° |
| 2026-05-04 00:25 | 35.21353 | -80.93520 | 753 ft | 156 kts | 175° |
| 2026-05-04 00:25 | 35.20191 | -80.93412 | 1313 ft | 177 kts | 177° |
| 2026-05-04 00:25 | 35.18907 | -80.93306 | 2110 ft | 195 kts | 179° |
| 2026-05-04 00:26 | 35.17506 | -80.93245 | 2902 ft | 207 kts | 181° |
| 2026-05-04 00:26 | 35.16017 | -80.93249 | 3676 ft | 221 kts | 185° |
| 2026-05-04 00:26 | 35.14423 | -80.93422 | 4293 ft | 243 kts | 188° |
| 2026-05-04 00:26 | 35.12659 | -80.93671 | 4966 ft | 263 kts | 188° |
| 2026-05-04 00:27 | 35.10820 | -80.93902 | 5872 ft | 271 kts | 188° |
| 2026-05-04 00:27 | 35.08899 | -80.94106 | 6779 ft | 280 kts | 187° |
| 2026-05-04 00:27 | 35.06930 | -80.94292 | 7712 ft | 286 kts | 187° |
| 2026-05-04 00:27 | 35.04951 | -80.94468 | 8675 ft | 290 kts | 187° |
| 2026-05-04 00:28 | 35.02911 | -80.94646 | 9612 ft | 297 kts | 187° |
| 2026-05-04 00:28 | 35.00827 | -80.94829 | 10433 ft | 307 kts | 187° |
| 2026-05-04 00:28 | 34.98612 | -80.95028 | 10837 ft | 330 kts | 187° |
| 2026-05-04 00:28 | 34.96242 | -80.95240 | 11271 ft | 349 kts | 187° |
| 2026-05-04 00:29 | 34.93794 | -80.95453 | 12126 ft | 353 kts | 187° |
| 2026-05-04 00:29 | 34.92150 | -80.95595 | 12735 ft | 356 kts | 187° |
| 2026-05-04 00:29 | 34.88842 | -80.95882 | 13906 ft | 361 kts | 187° |
| 2026-05-04 00:29 | 34.87172 | -80.96028 | 14410 ft | 364 kts | 188° |
| 2026-05-04 00:30 | 34.84632 | -80.96250 | 15215 ft | 366 kts | 188° |
| 2026-05-04 00:30 | 34.82069 | -80.96475 | 16000 ft | 370 kts | 188° |
| 2026-05-04 00:30 | 34.79490 | -80.96701 | 16793 ft | 373 kts | 188° |
| 2026-05-04 00:30 | 34.76909 | -80.96865 | 17537 ft | 377 kts | 186° |
| 2026-05-04 00:31 | 34.74269 | -80.96938 | 18324 ft | 381 kts | 186° |
| 2026-05-04 00:31 | 34.71598 | -80.96990 | 19000 ft | 383 kts | 186° |
| 2026-05-04 00:31 | 34.68916 | -80.97050 | 19670 ft | 386 kts | 186° |
| 2026-05-04 00:31 | 34.66245 | -80.97120 | 20329 ft | 388 kts | 186° |
| 2026-05-04 00:32 | 34.63532 | -80.97199 | 20997 ft | 391 kts | 186° |
| 2026-05-04 00:32 | 34.60779 | -80.97296 | 21644 ft | 393 kts | 188° |
| 2026-05-04 00:32 | 34.58074 | -80.97517 | 22285 ft | 395 kts | 189° |
| 2026-05-04 00:32 | 34.55319 | -80.97807 | 22917 ft | 398 kts | 190° |
| 2026-05-04 00:33 | 34.52536 | -80.98104 | 23545 ft | 401 kts | 190° |
| 2026-05-04 00:33 | 34.46965 | -80.98662 | 24590 ft | 407 kts | 189° |
| 2026-05-04 00:33 | 34.44116 | -80.98933 | 25111 ft | 409 kts | 189° |
| 2026-05-04 00:34 | 34.41261 | -80.99202 | 25603 ft | 412 kts | 189° |
| 2026-05-04 00:34 | 34.38424 | -80.99467 | 26098 ft | 414 kts | 189° |
| 2026-05-04 00:34 | 34.35541 | -80.99736 | 26584 ft | 417 kts | 189° |
| 2026-05-04 00:34 | 34.32633 | -81.00008 | 27045 ft | 420 kts | 189° |
| 2026-05-04 00:35 | 34.29703 | -81.00282 | 27513 ft | 422 kts | 189° |
| 2026-05-04 00:35 | 34.26757 | -81.00557 | 27969 ft | 424 kts | 189° |
| 2026-05-04 00:35 | 34.23801 | -81.00833 | 28409 ft | 427 kts | 190° |
| 2026-05-04 00:35 | 34.20864 | -81.01107 | 28843 ft | 428 kts | 190° |
| 2026-05-04 00:36 | 34.17881 | -81.01385 | 29273 ft | 430 kts | 190° |
| 2026-05-04 00:36 | 34.14878 | -81.01664 | 29690 ft | 432 kts | 190° |
| 2026-05-04 00:36 | 34.11905 | -81.01941 | 30111 ft | 433 kts | 190° |
| 2026-05-04 00:36 | 34.08881 | -81.02221 | 30498 ft | 434 kts | 190° |
| 2026-05-04 00:37 | 34.05851 | -81.02502 | 30908 ft | 435 kts | 191° |
| 2026-05-04 00:37 | 34.02833 | -81.02782 | 31314 ft | 435 kts | 191° |
| 2026-05-04 00:37 | 33.99843 | -81.03060 | 31801 ft | 432 kts | 192° |
| 2026-05-04 00:37 | 33.96891 | -81.03554 | 32333 ft | 423 kts | 198° |
| 2026-05-04 00:38 | 33.94024 | -81.04319 | 32858 ft | 418 kts | 199° |
| 2026-05-04 00:38 | 33.91225 | -81.05083 | 33359 ft | 416 kts | 199° |
| 2026-05-04 00:38 | 33.88408 | -81.05848 | 33833 ft | 413 kts | 199° |
| 2026-05-04 00:38 | 33.85598 | -81.06607 | 34274 ft | 410 kts | 199° |
| 2026-05-04 00:39 | 33.82803 | -81.07360 | 34631 ft | 409 kts | 200° |
| 2026-05-04 00:39 | 33.80058 | -81.08099 | 34953 ft | 408 kts | 200° |
| 2026-05-04 00:39 | 33.77284 | -81.08846 | 35261 ft | 407 kts | 200° |
| 2026-05-04 00:39 | 33.74890 | -81.09490 | 35518 ft | 407 kts | 200° |
| 2026-05-04 00:40 | 33.72706 | -81.10076 | 35778 ft | 406 kts | 200° |
| 2026-05-04 00:40 | 33.69940 | -81.10818 | 36023 ft | 405 kts | 200° |
| 2026-05-04 00:40 | 33.67183 | -81.11557 | 36069 ft | 404 kts | 200° |
| 2026-05-04 00:41 | 33.61725 | -81.13020 | 36069 ft | 403 kts | 200° |
| 2026-05-04 00:41 | 33.56272 | -81.14481 | 36072 ft | 402 kts | 200° |
| 2026-05-04 00:42 | 33.50795 | -81.15945 | 36071 ft | 402 kts | 200° |
| 2026-05-04 00:42 | 33.45352 | -81.17398 | 36076 ft | 401 kts | 200° |
| 2026-05-04 00:43 | 33.39879 | -81.18858 | 36101 ft | 401 kts | 200° |
| 2026-05-04 00:43 | 33.34459 | -81.20301 | 36104 ft | 401 kts | 200° |
| 2026-05-04 00:44 | 33.28999 | -81.21752 | 36108 ft | 401 kts | 200° |
| 2026-05-04 00:44 | 33.23576 | -81.23192 | 36109 ft | 400 kts | 200° |
| 2026-05-04 00:45 | 33.18161 | -81.24628 | 36112 ft | 400 kts | 200° |
| 2026-05-04 00:45 | 33.12710 | -81.26071 | 36104 ft | 399 kts | 200° |
| 2026-05-04 00:46 | 33.07304 | -81.27501 | 36105 ft | 399 kts | 200° |
| 2026-05-04 00:46 | 33.01873 | -81.28935 | 36099 ft | 398 kts | 200° |
| 2026-05-04 00:47 | 32.96489 | -81.30356 | 36095 ft | 398 kts | 200° |
| 2026-05-04 00:47 | 32.91071 | -81.31783 | 36099 ft | 397 kts | 200° |
| 2026-05-04 00:48 | 32.85690 | -81.33199 | 36088 ft | 397 kts | 200° |
| 2026-05-04 00:48 | 32.80283 | -81.34620 | 36087 ft | 396 kts | 200° |
| 2026-05-04 00:49 | 32.74924 | -81.36027 | 36092 ft | 396 kts | 200° |
| 2026-05-04 00:49 | 32.69528 | -81.37441 | 36098 ft | 396 kts | 200° |
| 2026-05-04 00:50 | 32.64165 | -81.38845 | 36102 ft | 396 kts | 200° |
| 2026-05-04 00:50 | 32.58861 | -81.40552 | 36103 ft | 392 kts | 204° |
| 2026-05-04 00:51 | 32.53654 | -81.42410 | 36108 ft | 392 kts | 204° |
| 2026-05-04 00:51 | 32.48417 | -81.44268 | 36105 ft | 392 kts | 204° |
| 2026-05-04 00:52 | 32.43201 | -81.46113 | 36092 ft | 392 kts | 204° |
| 2026-05-04 00:52 | 32.37983 | -81.47957 | 36092 ft | 392 kts | 204° |
| 2026-05-04 00:53 | 32.32741 | -81.49807 | 36095 ft | 392 kts | 204° |
| 2026-05-04 00:53 | 32.27488 | -81.51659 | 36096 ft | 393 kts | 204° |
| 2026-05-04 00:54 | 32.22270 | -81.53496 | 36102 ft | 393 kts | 204° |
| 2026-05-04 00:54 | 32.17050 | -81.55332 | 36107 ft | 393 kts | 204° |
| 2026-05-04 00:55 | 32.11801 | -81.57175 | 36106 ft | 393 kts | 204° |
| 2026-05-04 00:55 | 32.06559 | -81.59015 | 36104 ft | 392 kts | 204° |
| 2026-05-04 00:56 | 32.01341 | -81.60843 | 36108 ft | 392 kts | 204° |
| 2026-05-04 00:56 | 31.96092 | -81.62680 | 36108 ft | 392 kts | 204° |
| 2026-05-04 00:57 | 31.90878 | -81.64503 | 36107 ft | 392 kts | 204° |
| 2026-05-04 00:57 | 31.85626 | -81.66337 | 36106 ft | 392 kts | 204° |
| 2026-05-04 00:58 | 31.80406 | -81.68157 | 36104 ft | 392 kts | 205° |
| 2026-05-04 00:58 | 31.75195 | -81.69973 | 36103 ft | 392 kts | 205° |
| 2026-05-04 00:59 | 31.69953 | -81.71796 | 36121 ft | 392 kts | 205° |
| 2026-05-04 00:59 | 31.65582 | -81.73316 | 36128 ft | 392 kts | 205° |
| 2026-05-04 01:00 | 31.62103 | -81.74524 | 36142 ft | 392 kts | 205° |